sensor_id;sensor_type;location;lat;lon;timestamp;P1;durP1;ratioP1;P2;durP2;ratioP2
8482;SDS011;4278;42.668;23.312;2023-05-10T00:01:42;9.67;;;6.27;;
8482;SDS011;4278;42.668;23.312;2023-05-10T00:04:09;7.93;;;5.57;;
8482;SDS011;4278;42.668;23.312;2023-05-10T00:06:36;7.30;;;5.03;;
8482;SDS011;4278;42.668;23.312;2023-05-10T00:09:04;9.60;;;6.57;;
8482;SDS011;4278;42.668;23.312;2023-05-10T00:11:31;7.07;;;5.40;;
8482;SDS011;4278;42.668;23.312;2023-05-10T00:13:57;13.63;;;6.97;;
8482;SDS011;4278;42.668;23.312;2023-05-10T00:16:24;9.20;;;5.17;;
8482;SDS011;4278;42.668;23.312;2023-05-10T00:18:51;8.57;;;6.03;;
8482;SDS011;4278;42.668;23.312;2023-05-10T00:21:18;7.10;;;5.47;;
8482;SDS011;4278;42.668;23.312;2023-05-10T00:23:45;7.63;;;5.67;;
8482;SDS011;4278;42.668;23.312;2023-05-10T00:26:13;9.83;;;5.67;;
8482;SDS011;4278;42.668;23.312;2023-05-10T00:28:40;9.03;;;5.90;;
8482;SDS011;4278;42.668;23.312;2023-05-10T00:31:07;7.30;;;5.50;;
8482;SDS011;4278;42.668;23.312;2023-05-10T00:33:33;8.40;;;5.93;;
8482;SDS011;4278;42.668;23.312;2023-05-10T00:36:00;9.90;;;6.83;;
8482;SDS011;4278;42.668;23.312;2023-05-10T00:38:27;7.17;;;6.17;;
8482;SDS011;4278;42.668;23.312;2023-05-10T00:40:54;8.30;;;6.23;;
8482;SDS011;4278;42.668;23.312;2023-05-10T00:43:22;7.03;;;5.47;;
8482;SDS011;4278;42.668;23.312;2023-05-10T00:45:49;8.00;;;5.60;;
8482;SDS011;4278;42.668;23.312;2023-05-10T00:48:16;9.70;;;6.23;;
8482;SDS011;4278;42.668;23.312;2023-05-10T00:50:43;8.47;;;6.73;;
8482;SDS011;4278;42.668;23.312;2023-05-10T00:53:10;10.67;;;6.63;;
8482;SDS011;4278;42.668;23.312;2023-05-10T00:55:37;8.30;;;5.80;;
8482;SDS011;4278;42.668;23.312;2023-05-10T00:58:04;8.53;;;7.00;;
8482;SDS011;4278;42.668;23.312;2023-05-10T01:00:33;13.67;;;7.10;;
8482;SDS011;4278;42.668;23.312;2023-05-10T01:03:02;7.27;;;6.13;;
8482;SDS011;4278;42.668;23.312;2023-05-10T01:05:29;8.30;;;6.20;;
8482;SDS011;4278;42.668;23.312;2023-05-10T01:07:56;9.63;;;7.20;;
8482;SDS011;4278;42.668;23.312;2023-05-10T01:10:23;10.13;;;6.93;;
8482;SDS011;4278;42.668;23.312;2023-05-10T01:12:50;9.10;;;7.00;;
8482;SDS011;4278;42.668;23.312;2023-05-10T01:15:17;9.23;;;7.37;;
8482;SDS011;4278;42.668;23.312;2023-05-10T01:17:47;9.93;;;6.87;;
8482;SDS011;4278;42.668;23.312;2023-05-10T01:20:15;10.53;;;6.73;;
8482;SDS011;4278;42.668;23.312;2023-05-10T01:23:04;9.57;;;7.07;;
8482;SDS011;4278;42.668;23.312;2023-05-10T01:28:42;8.53;;;6.47;;
8482;SDS011;4278;42.668;23.312;2023-05-10T01:31:30;10.33;;;6.53;;
8482;SDS011;4278;42.668;23.312;2023-05-10T01:34:11;10.10;;;7.00;;
8482;SDS011;4278;42.668;23.312;2023-05-10T01:36:43;8.43;;;6.37;;
8482;SDS011;4278;42.668;23.312;2023-05-10T01:39:15;8.33;;;6.00;;
8482;SDS011;4278;42.668;23.312;2023-05-10T01:41:48;6.43;;;4.97;;
8482;SDS011;4278;42.668;23.312;2023-05-10T01:44:20;7.63;;;5.40;;
8482;SDS011;4278;42.668;23.312;2023-05-10T01:46:57;7.03;;;5.30;;
8482;SDS011;4278;42.668;23.312;2023-05-10T01:49:31;5.57;;;4.37;;
8482;SDS011;4278;42.668;23.312;2023-05-10T01:52:04;6.60;;;4.80;;
8482;SDS011;4278;42.668;23.312;2023-05-10T01:54:34;6.70;;;4.77;;
8482;SDS011;4278;42.668;23.312;2023-05-10T01:57:02;5.80;;;4.77;;
8482;SDS011;4278;42.668;23.312;2023-05-10T01:59:34;7.03;;;4.37;;
8482;SDS011;4278;42.668;23.312;2023-05-10T02:02:05;6.37;;;4.40;;
8482;SDS011;4278;42.668;23.312;2023-05-10T02:04:34;6.77;;;5.20;;
8482;SDS011;4278;42.668;23.312;2023-05-10T02:07:03;7.70;;;5.47;;
8482;SDS011;4278;42.668;23.312;2023-05-10T02:09:32;5.40;;;4.50;;
8482;SDS011;4278;42.668;23.312;2023-05-10T02:12:01;7.13;;;4.97;;
8482;SDS011;4278;42.668;23.312;2023-05-10T02:14:30;7.80;;;4.40;;
8482;SDS011;4278;42.668;23.312;2023-05-10T02:17:00;6.43;;;4.50;;
8482;SDS011;4278;42.668;23.312;2023-05-10T02:19:30;5.77;;;4.47;;
8482;SDS011;4278;42.668;23.312;2023-05-10T02:22:01;6.90;;;4.27;;
8482;SDS011;4278;42.668;23.312;2023-05-10T02:24:29;7.40;;;5.17;;
8482;SDS011;4278;42.668;23.312;2023-05-10T02:26:56;7.43;;;4.63;;
8482;SDS011;4278;42.668;23.312;2023-05-10T02:29:24;9.83;;;4.43;;
8482;SDS011;4278;42.668;23.312;2023-05-10T02:31:54;9.13;;;4.50;;
8482;SDS011;4278;42.668;23.312;2023-05-10T02:34:23;7.40;;;3.77;;
8482;SDS011;4278;42.668;23.312;2023-05-10T02:36:53;5.93;;;3.70;;
8482;SDS011;4278;42.668;23.312;2023-05-10T02:39:21;5.27;;;3.97;;
8482;SDS011;4278;42.668;23.312;2023-05-10T02:41:50;6.00;;;4.30;;
8482;SDS011;4278;42.668;23.312;2023-05-10T02:44:18;4.80;;;3.63;;
8482;SDS011;4278;42.668;23.312;2023-05-10T02:46:46;5.57;;;4.10;;
8482;SDS011;4278;42.668;23.312;2023-05-10T02:49:13;8.07;;;4.40;;
8482;SDS011;4278;42.668;23.312;2023-05-10T02:51:42;6.60;;;4.07;;
8482;SDS011;4278;42.668;23.312;2023-05-10T02:54:15;6.87;;;4.07;;
8482;SDS011;4278;42.668;23.312;2023-05-10T02:56:48;6.63;;;4.50;;
8482;SDS011;4278;42.668;23.312;2023-05-10T02:59:17;6.77;;;4.73;;
8482;SDS011;4278;42.668;23.312;2023-05-10T03:01:44;6.27;;;4.23;;
8482;SDS011;4278;42.668;23.312;2023-05-10T03:04:11;6.63;;;4.70;;
8482;SDS011;4278;42.668;23.312;2023-05-10T03:06:38;5.67;;;3.83;;
8482;SDS011;4278;42.668;23.312;2023-05-10T03:09:05;7.73;;;5.17;;
8482;SDS011;4278;42.668;23.312;2023-05-10T03:11:39;8.10;;;4.47;;
8482;SDS011;4278;42.668;23.312;2023-05-10T03:14:16;16.50;;;5.60;;
8482;SDS011;4278;42.668;23.312;2023-05-10T03:16:54;23.00;;;6.13;;
8482;SDS011;4278;42.668;23.312;2023-05-10T03:19:26;12.10;;;4.87;;
8482;SDS011;4278;42.668;23.312;2023-05-10T03:21:57;11.10;;;5.47;;
8482;SDS011;4278;42.668;23.312;2023-05-10T03:24:29;12.67;;;5.30;;
8482;SDS011;4278;42.668;23.312;2023-05-10T03:26:57;13.10;;;5.37;;
8482;SDS011;4278;42.668;23.312;2023-05-10T03:29:29;11.53;;;5.30;;
8482;SDS011;4278;42.668;23.312;2023-05-10T03:31:58;11.23;;;4.77;;
8482;SDS011;4278;42.668;23.312;2023-05-10T03:34:26;10.87;;;4.73;;
8482;SDS011;4278;42.668;23.312;2023-05-10T03:36:52;16.83;;;5.50;;
8482;SDS011;4278;42.668;23.312;2023-05-10T03:39:19;10.10;;;4.30;;
8482;SDS011;4278;42.668;23.312;2023-05-10T03:41:46;12.37;;;5.57;;
8482;SDS011;4278;42.668;23.312;2023-05-10T03:44:13;11.43;;;5.70;;
8482;SDS011;4278;42.668;23.312;2023-05-10T03:46:41;7.63;;;4.50;;
8482;SDS011;4278;42.668;23.312;2023-05-10T03:49:08;11.73;;;5.50;;
8482;SDS011;4278;42.668;23.312;2023-05-10T03:51:35;9.80;;;4.70;;
8482;SDS011;4278;42.668;23.312;2023-05-10T03:54:02;10.63;;;6.03;;
8482;SDS011;4278;42.668;23.312;2023-05-10T03:56:29;10.47;;;4.70;;
8482;SDS011;4278;42.668;23.312;2023-05-10T03:58:55;8.93;;;4.43;;
8482;SDS011;4278;42.668;23.312;2023-05-10T04:01:22;11.30;;;5.03;;
8482;SDS011;4278;42.668;23.312;2023-05-10T04:03:50;9.87;;;5.20;;
8482;SDS011;4278;42.668;23.312;2023-05-10T04:06:17;9.30;;;5.27;;
8482;SDS011;4278;42.668;23.312;2023-05-10T04:08:44;8.27;;;4.30;;
8482;SDS011;4278;42.668;23.312;2023-05-10T04:11:11;8.87;;;5.00;;
8482;SDS011;4278;42.668;23.312;2023-05-10T04:13:39;10.40;;;5.10;;
8482;SDS011;4278;42.668;23.312;2023-05-10T04:16:05;8.70;;;4.83;;
8482;SDS011;4278;42.668;23.312;2023-05-10T04:18:32;6.77;;;4.07;;
8482;SDS011;4278;42.668;23.312;2023-05-10T04:21:01;10.70;;;4.77;;
8482;SDS011;4278;42.668;23.312;2023-05-10T04:23:27;5.27;;;3.77;;
8482;SDS011;4278;42.668;23.312;2023-05-10T04:25:58;7.90;;;4.50;;
8482;SDS011;4278;42.668;23.312;2023-05-10T04:28:27;6.33;;;4.00;;
8482;SDS011;4278;42.668;23.312;2023-05-10T04:31:00;12.40;;;5.10;;
8482;SDS011;4278;42.668;23.312;2023-05-10T04:33:27;11.03;;;4.90;;
8482;SDS011;4278;42.668;23.312;2023-05-10T04:35:54;10.00;;;5.23;;
8482;SDS011;4278;42.668;23.312;2023-05-10T04:38:22;9.93;;;4.80;;
8482;SDS011;4278;42.668;23.312;2023-05-10T04:40:49;11.53;;;5.60;;
8482;SDS011;4278;42.668;23.312;2023-05-10T04:43:16;10.70;;;5.60;;
8482;SDS011;4278;42.668;23.312;2023-05-10T04:45:43;8.80;;;4.83;;
8482;SDS011;4278;42.668;23.312;2023-05-10T04:48:10;11.50;;;5.47;;
8482;SDS011;4278;42.668;23.312;2023-05-10T04:50:37;10.47;;;5.50;;
8482;SDS011;4278;42.668;23.312;2023-05-10T04:53:05;9.97;;;5.13;;
8482;SDS011;4278;42.668;23.312;2023-05-10T04:55:33;12.13;;;6.27;;
8482;SDS011;4278;42.668;23.312;2023-05-10T04:58:00;13.33;;;6.33;;
8482;SDS011;4278;42.668;23.312;2023-05-10T05:00:27;13.07;;;6.17;;
8482;SDS011;4278;42.668;23.312;2023-05-10T05:02:54;14.87;;;6.87;;
8482;SDS011;4278;42.668;23.312;2023-05-10T05:05:21;10.77;;;5.60;;
8482;SDS011;4278;42.668;23.312;2023-05-10T05:07:48;18.93;;;7.23;;
8482;SDS011;4278;42.668;23.312;2023-05-10T05:10:15;11.63;;;6.30;;
8482;SDS011;4278;42.668;23.312;2023-05-10T05:12:44;11.03;;;5.83;;
8482;SDS011;4278;42.668;23.312;2023-05-10T05:15:12;11.77;;;5.97;;
8482;SDS011;4278;42.668;23.312;2023-05-10T05:17:40;7.23;;;5.13;;
8482;SDS011;4278;42.668;23.312;2023-05-10T05:20:07;12.07;;;6.33;;
8482;SDS011;4278;42.668;23.312;2023-05-10T05:22:35;10.07;;;5.80;;
8482;SDS011;4278;42.668;23.312;2023-05-10T05:25:03;18.77;;;7.03;;
8482;SDS011;4278;42.668;23.312;2023-05-10T05:27:30;7.83;;;5.07;;
8482;SDS011;4278;42.668;23.312;2023-05-10T05:29:59;11.10;;;6.23;;
8482;SDS011;4278;42.668;23.312;2023-05-10T05:32:25;11.40;;;5.87;;
8482;SDS011;4278;42.668;23.312;2023-05-10T05:34:52;11.90;;;6.13;;
8482;SDS011;4278;42.668;23.312;2023-05-10T05:37:20;9.63;;;5.30;;
8482;SDS011;4278;42.668;23.312;2023-05-10T05:39:47;11.50;;;6.33;;
8482;SDS011;4278;42.668;23.312;2023-05-10T05:42:15;11.87;;;5.73;;
8482;SDS011;4278;42.668;23.312;2023-05-10T05:44:43;9.87;;;6.07;;
8482;SDS011;4278;42.668;23.312;2023-05-10T05:47:12;14.53;;;8.03;;
8482;SDS011;4278;42.668;23.312;2023-05-10T05:49:39;13.57;;;6.80;;
8482;SDS011;4278;42.668;23.312;2023-05-10T05:52:05;14.20;;;7.67;;
8482;SDS011;4278;42.668;23.312;2023-05-10T05:54:32;12.10;;;6.57;;
8482;SDS011;4278;42.668;23.312;2023-05-10T05:57:01;15.97;;;7.47;;
8482;SDS011;4278;42.668;23.312;2023-05-10T05:59:27;16.17;;;7.77;;
8482;SDS011;4278;42.668;23.312;2023-05-10T06:01:55;12.83;;;7.30;;
8482;SDS011;4278;42.668;23.312;2023-05-10T06:04:23;10.50;;;6.40;;
8482;SDS011;4278;42.668;23.312;2023-05-10T06:06:51;15.13;;;6.77;;
8482;SDS011;4278;42.668;23.312;2023-05-10T06:09:17;10.60;;;6.87;;
8482;SDS011;4278;42.668;23.312;2023-05-10T06:11:44;18.33;;;8.87;;
8482;SDS011;4278;42.668;23.312;2023-05-10T06:14:11;18.20;;;7.47;;
8482;SDS011;4278;42.668;23.312;2023-05-10T06:16:38;15.87;;;7.20;;
8482;SDS011;4278;42.668;23.312;2023-05-10T06:19:05;15.90;;;8.40;;
8482;SDS011;4278;42.668;23.312;2023-05-10T06:21:33;13.67;;;7.63;;
8482;SDS011;4278;42.668;23.312;2023-05-10T06:24:00;18.03;;;10.67;;
8482;SDS011;4278;42.668;23.312;2023-05-10T06:26:27;18.83;;;9.70;;
8482;SDS011;4278;42.668;23.312;2023-05-10T06:28:54;18.70;;;9.23;;
8482;SDS011;4278;42.668;23.312;2023-05-10T06:31:21;14.17;;;7.77;;
8482;SDS011;4278;42.668;23.312;2023-05-10T06:33:48;12.23;;;7.90;;
8482;SDS011;4278;42.668;23.312;2023-05-10T06:36:15;15.50;;;8.30;;
8482;SDS011;4278;42.668;23.312;2023-05-10T06:38:44;22.27;;;9.50;;
8482;SDS011;4278;42.668;23.312;2023-05-10T06:41:11;16.77;;;9.23;;
8482;SDS011;4278;42.668;23.312;2023-05-10T06:43:38;14.60;;;7.30;;
8482;SDS011;4278;42.668;23.312;2023-05-10T06:46:06;11.77;;;7.27;;
8482;SDS011;4278;42.668;23.312;2023-05-10T06:48:33;13.13;;;7.43;;
8482;SDS011;4278;42.668;23.312;2023-05-10T06:51:00;14.47;;;8.07;;
8482;SDS011;4278;42.668;23.312;2023-05-10T06:53:26;14.43;;;7.80;;
8482;SDS011;4278;42.668;23.312;2023-05-10T06:55:55;12.23;;;7.33;;
8482;SDS011;4278;42.668;23.312;2023-05-10T06:58:22;15.70;;;7.73;;
8482;SDS011;4278;42.668;23.312;2023-05-10T07:00:49;15.30;;;7.47;;
8482;SDS011;4278;42.668;23.312;2023-05-10T07:03:16;17.30;;;7.87;;
8482;SDS011;4278;42.668;23.312;2023-05-10T07:05:42;12.90;;;7.57;;
8482;SDS011;4278;42.668;23.312;2023-05-10T07:08:09;23.30;;;10.10;;
8482;SDS011;4278;42.668;23.312;2023-05-10T07:10:36;15.47;;;7.40;;
8482;SDS011;4278;42.668;23.312;2023-05-10T07:13:04;19.27;;;9.43;;
8482;SDS011;4278;42.668;23.312;2023-05-10T07:15:31;14.03;;;6.97;;
8482;SDS011;4278;42.668;23.312;2023-05-10T07:17:58;16.13;;;7.87;;
8482;SDS011;4278;42.668;23.312;2023-05-10T07:20:25;18.57;;;7.23;;
8482;SDS011;4278;42.668;23.312;2023-05-10T07:22:52;18.57;;;8.17;;
8482;SDS011;4278;42.668;23.312;2023-05-10T07:25:19;11.33;;;6.17;;
8482;SDS011;4278;42.668;23.312;2023-05-10T07:27:46;12.83;;;7.30;;
8482;SDS011;4278;42.668;23.312;2023-05-10T07:30:19;16.30;;;7.23;;
8482;SDS011;4278;42.668;23.312;2023-05-10T07:32:46;20.00;;;9.07;;
8482;SDS011;4278;42.668;23.312;2023-05-10T07:35:13;18.40;;;8.23;;
8482;SDS011;4278;42.668;23.312;2023-05-10T07:37:40;17.43;;;9.07;;
8482;SDS011;4278;42.668;23.312;2023-05-10T07:40:08;18.00;;;8.83;;
8482;SDS011;4278;42.668;23.312;2023-05-10T07:42:35;14.83;;;7.37;;
8482;SDS011;4278;42.668;23.312;2023-05-10T07:45:02;18.03;;;8.70;;
8482;SDS011;4278;42.668;23.312;2023-05-10T07:47:30;13.67;;;7.50;;
8482;SDS011;4278;42.668;23.312;2023-05-10T07:49:57;13.57;;;8.23;;
8482;SDS011;4278;42.668;23.312;2023-05-10T07:52:24;17.63;;;8.83;;
8482;SDS011;4278;42.668;23.312;2023-05-10T07:54:51;17.00;;;8.83;;
8482;SDS011;4278;42.668;23.312;2023-05-10T07:57:18;13.17;;;7.37;;
8482;SDS011;4278;42.668;23.312;2023-05-10T07:59:45;17.90;;;9.13;;
8482;SDS011;4278;42.668;23.312;2023-05-10T08:02:12;17.50;;;8.47;;
8482;SDS011;4278;42.668;23.312;2023-05-10T08:04:40;16.30;;;8.60;;
8482;SDS011;4278;42.668;23.312;2023-05-10T08:07:07;20.67;;;9.80;;
8482;SDS011;4278;42.668;23.312;2023-05-10T08:09:34;16.47;;;8.27;;
8482;SDS011;4278;42.668;23.312;2023-05-10T08:12:01;16.43;;;8.43;;
8482;SDS011;4278;42.668;23.312;2023-05-10T08:14:29;16.53;;;8.17;;
8482;SDS011;4278;42.668;23.312;2023-05-10T08:16:55;16.37;;;9.40;;
8482;SDS011;4278;42.668;23.312;2023-05-10T08:19:22;11.50;;;7.07;;
8482;SDS011;4278;42.668;23.312;2023-05-10T08:21:51;14.63;;;7.63;;
8482;SDS011;4278;42.668;23.312;2023-05-10T08:24:18;28.67;;;8.67;;
8482;SDS011;4278;42.668;23.312;2023-05-10T08:26:45;16.83;;;8.10;;
8482;SDS011;4278;42.668;23.312;2023-05-10T08:29:12;18.83;;;8.07;;
8482;SDS011;4278;42.668;23.312;2023-05-10T08:31:39;15.13;;;8.53;;
8482;SDS011;4278;42.668;23.312;2023-05-10T08:34:06;13.57;;;7.30;;
8482;SDS011;4278;42.668;23.312;2023-05-10T08:36:33;12.90;;;8.07;;
8482;SDS011;4278;42.668;23.312;2023-05-10T08:39:01;15.70;;;7.57;;
8482;SDS011;4278;42.668;23.312;2023-05-10T08:41:28;14.93;;;8.30;;
8482;SDS011;4278;42.668;23.312;2023-05-10T08:43:59;14.60;;;8.27;;
8482;SDS011;4278;42.668;23.312;2023-05-10T08:46:30;15.00;;;8.90;;
8482;SDS011;4278;42.668;23.312;2023-05-10T08:49:00;19.10;;;8.80;;
8482;SDS011;4278;42.668;23.312;2023-05-10T08:51:30;15.83;;;8.43;;
8482;SDS011;4278;42.668;23.312;2023-05-10T08:54:03;14.87;;;8.97;;
8482;SDS011;4278;42.668;23.312;2023-05-10T08:56:30;16.20;;;7.93;;
8482;SDS011;4278;42.668;23.312;2023-05-10T08:58:58;17.57;;;9.37;;
8482;SDS011;4278;42.668;23.312;2023-05-10T09:01:24;15.80;;;8.50;;
8482;SDS011;4278;42.668;23.312;2023-05-10T09:03:53;15.87;;;7.73;;
8482;SDS011;4278;42.668;23.312;2023-05-10T09:06:20;12.03;;;7.27;;
8482;SDS011;4278;42.668;23.312;2023-05-10T09:08:47;13.20;;;7.67;;
8482;SDS011;4278;42.668;23.312;2023-05-10T09:11:15;14.80;;;8.60;;
8482;SDS011;4278;42.668;23.312;2023-05-10T09:13:43;10.03;;;7.60;;
8482;SDS011;4278;42.668;23.312;2023-05-10T09:16:11;10.17;;;7.67;;
8482;SDS011;4278;42.668;23.312;2023-05-10T09:18:38;13.97;;;8.13;;
8482;SDS011;4278;42.668;23.312;2023-05-10T09:21:05;11.83;;;7.93;;
8482;SDS011;4278;42.668;23.312;2023-05-10T09:23:32;11.70;;;7.53;;
8482;SDS011;4278;42.668;23.312;2023-05-10T09:26:02;12.30;;;9.00;;
8482;SDS011;4278;42.668;23.312;2023-05-10T09:28:32;11.87;;;8.03;;
8482;SDS011;4278;42.668;23.312;2023-05-10T09:30:59;17.27;;;9.43;;
8482;SDS011;4278;42.668;23.312;2023-05-10T09:33:27;10.00;;;7.80;;
8482;SDS011;4278;42.668;23.312;2023-05-10T09:35:54;10.90;;;7.83;;
8482;SDS011;4278;42.668;23.312;2023-05-10T09:38:21;16.30;;;8.77;;
8482;SDS011;4278;42.668;23.312;2023-05-10T09:40:51;10.93;;;8.03;;
8482;SDS011;4278;42.668;23.312;2023-05-10T09:43:20;11.57;;;8.40;;
8482;SDS011;4278;42.668;23.312;2023-05-10T09:45:49;11.27;;;7.60;;
8482;SDS011;4278;42.668;23.312;2023-05-10T09:48:16;10.93;;;8.07;;
8482;SDS011;4278;42.668;23.312;2023-05-10T09:50:43;11.97;;;7.90;;
8482;SDS011;4278;42.668;23.312;2023-05-10T09:53:09;12.80;;;8.00;;
8482;SDS011;4278;42.668;23.312;2023-05-10T09:55:42;14.23;;;9.17;;
8482;SDS011;4278;42.668;23.312;2023-05-10T09:58:11;10.77;;;7.83;;
8482;SDS011;4278;42.668;23.312;2023-05-10T10:00:38;12.70;;;7.33;;
8482;SDS011;4278;42.668;23.312;2023-05-10T10:03:11;10.97;;;8.83;;
8482;SDS011;4278;42.668;23.312;2023-05-10T10:05:39;11.17;;;7.23;;
8482;SDS011;4278;42.668;23.312;2023-05-10T10:08:07;12.73;;;8.53;;
8482;SDS011;4278;42.668;23.312;2023-05-10T10:10:34;14.67;;;7.80;;
8482;SDS011;4278;42.668;23.312;2023-05-10T10:13:02;12.53;;;8.03;;
8482;SDS011;4278;42.668;23.312;2023-05-10T10:15:29;10.53;;;7.70;;
8482;SDS011;4278;42.668;23.312;2023-05-10T10:17:57;10.60;;;7.27;;
8482;SDS011;4278;42.668;23.312;2023-05-10T10:20:26;13.90;;;7.53;;
8482;SDS011;4278;42.668;23.312;2023-05-10T10:22:54;10.30;;;7.73;;
8482;SDS011;4278;42.668;23.312;2023-05-10T10:25:21;14.17;;;8.80;;
8482;SDS011;4278;42.668;23.312;2023-05-10T10:27:49;7.87;;;6.27;;
8482;SDS011;4278;42.668;23.312;2023-05-10T10:30:31;12.07;;;6.90;;
8482;SDS011;4278;42.668;23.312;2023-05-10T10:33:13;15.20;;;7.73;;
8482;SDS011;4278;42.668;23.312;2023-05-10T10:35:58;11.37;;;7.23;;
8482;SDS011;4278;42.668;23.312;2023-05-10T10:38:34;9.63;;;6.33;;
8482;SDS011;4278;42.668;23.312;2023-05-10T10:41:03;12.07;;;7.80;;
8482;SDS011;4278;42.668;23.312;2023-05-10T10:43:35;10.93;;;7.53;;
8482;SDS011;4278;42.668;23.312;2023-05-10T10:46:09;15.40;;;8.30;;
8482;SDS011;4278;42.668;23.312;2023-05-10T10:48:40;8.87;;;6.90;;
8482;SDS011;4278;42.668;23.312;2023-05-10T10:51:09;8.70;;;6.40;;
8482;SDS011;4278;42.668;23.312;2023-05-10T10:53:36;8.87;;;6.50;;
8482;SDS011;4278;42.668;23.312;2023-05-10T10:56:05;9.50;;;7.07;;
8482;SDS011;4278;42.668;23.312;2023-05-10T10:58:34;9.33;;;6.43;;
8482;SDS011;4278;42.668;23.312;2023-05-10T11:01:14;11.57;;;6.80;;
8482;SDS011;4278;42.668;23.312;2023-05-10T11:03:54;9.50;;;6.83;;
8482;SDS011;4278;42.668;23.312;2023-05-10T11:06:45;8.80;;;5.97;;
8482;SDS011;4278;42.668;23.312;2023-05-10T11:09:12;9.20;;;6.70;;
8482;SDS011;4278;42.668;23.312;2023-05-10T11:11:48;8.13;;;5.63;;
8482;SDS011;4278;42.668;23.312;2023-05-10T11:14:20;7.73;;;6.07;;
8482;SDS011;4278;42.668;23.312;2023-05-10T11:16:47;8.73;;;6.37;;
8482;SDS011;4278;42.668;23.312;2023-05-10T11:19:15;13.43;;;7.17;;
8482;SDS011;4278;42.668;23.312;2023-05-10T11:21:48;8.07;;;5.93;;
8482;SDS011;4278;42.668;23.312;2023-05-10T11:24:16;9.33;;;5.93;;
8482;SDS011;4278;42.668;23.312;2023-05-10T11:26:45;8.50;;;6.50;;
8482;SDS011;4278;42.668;23.312;2023-05-10T11:29:17;15.20;;;7.47;;
8482;SDS011;4278;42.668;23.312;2023-05-10T11:31:44;10.60;;;7.50;;
8482;SDS011;4278;42.668;23.312;2023-05-10T11:34:12;10.03;;;6.63;;
8482;SDS011;4278;42.668;23.312;2023-05-10T11:36:52;14.27;;;7.70;;
8482;SDS011;4278;42.668;23.312;2023-05-10T11:39:20;9.17;;;6.13;;
8482;SDS011;4278;42.668;23.312;2023-05-10T11:41:48;11.03;;;6.47;;
8482;SDS011;4278;42.668;23.312;2023-05-10T11:44:15;9.83;;;6.17;;
8482;SDS011;4278;42.668;23.312;2023-05-10T11:46:42;8.70;;;5.63;;
8482;SDS011;4278;42.668;23.312;2023-05-10T11:49:09;9.37;;;6.43;;
8482;SDS011;4278;42.668;23.312;2023-05-10T11:51:39;10.57;;;5.23;;
8482;SDS011;4278;42.668;23.312;2023-05-10T11:54:10;8.07;;;5.30;;
8482;SDS011;4278;42.668;23.312;2023-05-10T11:56:38;8.37;;;5.80;;
8482;SDS011;4278;42.668;23.312;2023-05-10T11:59:05;7.53;;;5.90;;
8482;SDS011;4278;42.668;23.312;2023-05-10T12:01:33;9.13;;;6.10;;
8482;SDS011;4278;42.668;23.312;2023-05-10T12:04:00;10.30;;;6.77;;
8482;SDS011;4278;42.668;23.312;2023-05-10T12:06:28;9.80;;;6.37;;
8482;SDS011;4278;42.668;23.312;2023-05-10T12:08:56;11.20;;;7.33;;
8482;SDS011;4278;42.668;23.312;2023-05-10T12:11:25;10.37;;;6.77;;
8482;SDS011;4278;42.668;23.312;2023-05-10T12:13:53;15.63;;;7.57;;
8482;SDS011;4278;42.668;23.312;2023-05-10T12:16:21;11.97;;;7.70;;
8482;SDS011;4278;42.668;23.312;2023-05-10T12:18:49;14.23;;;7.40;;
8482;SDS011;4278;42.668;23.312;2023-05-10T12:21:17;13.53;;;7.97;;
8482;SDS011;4278;42.668;23.312;2023-05-10T12:23:46;14.93;;;8.33;;
8482;SDS011;4278;42.668;23.312;2023-05-10T12:26:15;12.07;;;6.77;;
8482;SDS011;4278;42.668;23.312;2023-05-10T12:28:43;9.90;;;6.83;;
8482;SDS011;4278;42.668;23.312;2023-05-10T12:31:10;9.93;;;6.20;;
8482;SDS011;4278;42.668;23.312;2023-05-10T12:33:37;13.60;;;6.87;;
8482;SDS011;4278;42.668;23.312;2023-05-10T12:36:07;17.83;;;10.63;;
8482;SDS011;4278;42.668;23.312;2023-05-10T12:38:36;17.00;;;9.03;;
8482;SDS011;4278;42.668;23.312;2023-05-10T12:41:04;15.73;;;8.37;;
8482;SDS011;4278;42.668;23.312;2023-05-10T12:43:32;9.93;;;7.23;;
8482;SDS011;4278;42.668;23.312;2023-05-10T12:46:05;11.37;;;7.97;;
8482;SDS011;4278;42.668;23.312;2023-05-10T12:48:34;11.93;;;7.63;;
8482;SDS011;4278;42.668;23.312;2023-05-10T12:51:01;12.40;;;7.43;;
8482;SDS011;4278;42.668;23.312;2023-05-10T12:53:29;11.13;;;7.30;;
8482;SDS011;4278;42.668;23.312;2023-05-10T12:55:56;8.80;;;6.57;;
8482;SDS011;4278;42.668;23.312;2023-05-10T12:58:23;9.63;;;7.00;;
8482;SDS011;4278;42.668;23.312;2023-05-10T13:00:50;10.43;;;7.63;;
8482;SDS011;4278;42.668;23.312;2023-05-10T13:03:19;11.20;;;7.27;;
8482;SDS011;4278;42.668;23.312;2023-05-10T13:05:46;12.70;;;8.30;;
8482;SDS011;4278;42.668;23.312;2023-05-10T13:08:13;15.80;;;7.93;;
8482;SDS011;4278;42.668;23.312;2023-05-10T13:10:40;14.47;;;7.97;;
8482;SDS011;4278;42.668;23.312;2023-05-10T13:13:07;12.50;;;8.27;;
8482;SDS011;4278;42.668;23.312;2023-05-10T13:15:34;11.87;;;7.57;;
8482;SDS011;4278;42.668;23.312;2023-05-10T13:18:01;11.70;;;8.10;;
8482;SDS011;4278;42.668;23.312;2023-05-10T13:20:29;11.33;;;7.23;;
8482;SDS011;4278;42.668;23.312;2023-05-10T13:22:56;13.03;;;7.67;;
8482;SDS011;4278;42.668;23.312;2023-05-10T13:25:23;15.10;;;7.07;;
8482;SDS011;4278;42.668;23.312;2023-05-10T13:27:50;14.83;;;7.37;;
8482;SDS011;4278;42.668;23.312;2023-05-10T13:30:17;11.33;;;7.60;;
8482;SDS011;4278;42.668;23.312;2023-05-10T13:32:44;16.63;;;8.23;;
8482;SDS011;4278;42.668;23.312;2023-05-10T13:35:10;14.17;;;8.43;;
8482;SDS011;4278;42.668;23.312;2023-05-10T13:37:39;11.73;;;8.13;;
8482;SDS011;4278;42.668;23.312;2023-05-10T13:40:06;11.60;;;8.43;;
8482;SDS011;4278;42.668;23.312;2023-05-10T13:42:33;13.00;;;8.03;;
8482;SDS011;4278;42.668;23.312;2023-05-10T13:45:00;9.93;;;7.10;;
8482;SDS011;4278;42.668;23.312;2023-05-10T13:47:27;10.37;;;6.87;;
8482;SDS011;4278;42.668;23.312;2023-05-10T13:49:54;12.60;;;7.83;;
8482;SDS011;4278;42.668;23.312;2023-05-10T13:52:22;11.30;;;7.57;;
8482;SDS011;4278;42.668;23.312;2023-05-10T13:54:50;9.30;;;7.20;;
8482;SDS011;4278;42.668;23.312;2023-05-10T13:57:19;14.10;;;8.17;;
8482;SDS011;4278;42.668;23.312;2023-05-10T13:59:46;10.20;;;7.50;;
8482;SDS011;4278;42.668;23.312;2023-05-10T14:02:13;13.40;;;7.33;;
8482;SDS011;4278;42.668;23.312;2023-05-10T14:04:40;10.23;;;7.07;;
8482;SDS011;4278;42.668;23.312;2023-05-10T14:07:07;11.50;;;7.67;;
8482;SDS011;4278;42.668;23.312;2023-05-10T14:09:34;12.83;;;7.37;;
8482;SDS011;4278;42.668;23.312;2023-05-10T14:12:02;11.37;;;7.47;;
8482;SDS011;4278;42.668;23.312;2023-05-10T14:14:30;11.90;;;6.93;;
8482;SDS011;4278;42.668;23.312;2023-05-10T14:16:57;8.80;;;6.50;;
8482;SDS011;4278;42.668;23.312;2023-05-10T14:19:24;9.67;;;7.10;;
8482;SDS011;4278;42.668;23.312;2023-05-10T14:21:52;13.63;;;6.83;;
8482;SDS011;4278;42.668;23.312;2023-05-10T14:24:18;10.13;;;7.10;;
8482;SDS011;4278;42.668;23.312;2023-05-10T14:26:45;13.40;;;7.60;;
8482;SDS011;4278;42.668;23.312;2023-05-10T14:29:15;11.43;;;8.03;;
8482;SDS011;4278;42.668;23.312;2023-05-10T14:31:42;11.73;;;7.80;;
8482;SDS011;4278;42.668;23.312;2023-05-10T14:34:09;12.43;;;8.20;;
8482;SDS011;4278;42.668;23.312;2023-05-10T14:36:36;11.63;;;8.17;;
8482;SDS011;4278;42.668;23.312;2023-05-10T14:39:02;12.30;;;7.67;;
8482;SDS011;4278;42.668;23.312;2023-05-10T14:41:30;9.87;;;6.90;;
8482;SDS011;4278;42.668;23.312;2023-05-10T14:43:56;13.03;;;7.30;;
8482;SDS011;4278;42.668;23.312;2023-05-10T14:46:25;14.93;;;7.77;;
8482;SDS011;4278;42.668;23.312;2023-05-10T14:48:51;10.20;;;7.10;;
8482;SDS011;4278;42.668;23.312;2023-05-10T14:51:18;11.47;;;7.40;;
8482;SDS011;4278;42.668;23.312;2023-05-10T14:53:47;12.10;;;6.97;;
8482;SDS011;4278;42.668;23.312;2023-05-10T14:56:14;12.53;;;7.53;;
8482;SDS011;4278;42.668;23.312;2023-05-10T14:58:41;13.07;;;7.53;;
8482;SDS011;4278;42.668;23.312;2023-05-10T15:01:07;18.70;;;7.70;;
8482;SDS011;4278;42.668;23.312;2023-05-10T15:03:36;10.93;;;7.50;;